Aviation Digital Data Service (ADDS)

Output produced by TAFs form (0642 UTC 23 February 2018)
found at http://www.aviationweather.gov/adds/tafs/
 
KCHA 230553Z AUTO 00000KT 10SM CLR 14/13 A3035 RMK AO2 SLP273 T01440133 10239 20144 50002
KCHA 230520Z 2306/2406 00000KT P6SM FEW050 
     FM231000 17003KT 6SM BR BKN050 
     FM231200 00000KT 5SM BR BKN050 
     FM231600 18005KT P6SM BKN050